Time,TemperatureF,DewpointF,PressureIn,WindDirection,WindDirectionDegrees,WindSpeedMPH,WindSpeedGustMPH,Humidity,HourlyPrecipIn,Conditions,Clouds,dailyrainin,SoftwareType,DateUTC
2013-02-01 00:00:00,24.8,14.4,29.64,West,277,5.0,12.0,64,0.00,,OVC006,0.00,VWS V14.01,2013-02-01 05:00:00,
2013-02-01 00:01:00,25.1,18.0,29.62,WNW,291,1.0,12.0,74,0.00,,SCT080,0.00,VWS V14.01,2013-02-01 05:01:00,
2013-02-01 00:10:00,25.0,16.9,29.63,SW,215,5.0,13.0,71,0.00,,BKN075,0.00,VWS V14.01,2013-02-01 05:10:00,
2013-02-01 00:20:00,24.9,16.8,29.63,SSW,203,4.0,11.0,71,0.00,,BKN075,0.00,VWS V14.01,2013-02-01 05:20:00,
2013-02-01 00:30:00,24.8,16.4,29.63,West,272,1.0,10.0,70,0.00,,BKN075,0.00,VWS V14.01,2013-02-01 05:30:00,
2013-02-01 00:40:00,24.9,15.9,29.63,WSW,246,2.0,15.0,68,0.00,,BKN075,0.00,VWS V14.01,2013-02-01 05:40:00,
2013-02-01 00:50:00,24.9,14.8,29.64,NW,305,2.0,9.0,65,0.00,,BKN075,0.00,VWS V14.01,2013-02-01 05:50:00,
2013-02-01 01:00:00,24.4,11.4,29.67,ENE,65,2.0,16.0,57,0.00,,OVC006,0.00,VWS V14.01,2013-02-01 06:00:00,
2013-02-01 01:01:00,24.8,14.4,29.64,West,277,5.0,12.0,64,0.00,,BKN075,0.00,VWS V14.01,2013-02-01 06:01:00,
2013-02-01 01:10:00,24.8,13.6,29.64,West,278,2.0,11.0,62,0.00,,SCT075,0.00,VWS V14.01,2013-02-01 06:10:00,
2013-02-01 01:20:00,24.7,13.2,29.65,South,172,4.0,11.0,61,0.00,,SCT075,0.00,VWS V14.01,2013-02-01 06:20:00,
2013-02-01 01:30:00,24.7,12.4,29.66,SE,133,3.0,11.0,59,0.00,,SCT075,0.00,VWS V14.01,2013-02-01 06:30:00,
2013-02-01 01:40:00,24.6,11.9,29.66,WSW,256,5.0,13.0,58,0.00,,SCT075,0.00,VWS V14.01,2013-02-01 06:40:00,
2013-02-01 01:50:00,24.4,11.8,29.67,NW,304,4.0,10.0,58,0.00,,SCT075,0.00,VWS V14.01,2013-02-01 06:50:00,
2013-02-01 02:00:00,24.4,11.4,29.67,ENE,65,2.0,16.0,57,0.00,,SCT075,0.00,VWS V14.01,2013-02-01 07:00:00,
2013-02-01 02:10:00,24.3,11.3,29.67,SSW,208,5.0,13.0,57,0.00,,FEW075,0.00,VWS V14.01,2013-02-01 07:10:00,
2013-02-01 02:20:00,24.2,11.2,29.67,SW,214,3.0,14.0,57,0.00,,FEW075,0.00,VWS V14.01,2013-02-01 07:20:00,
2013-02-01 02:30:00,24.1,11.1,29.67,WSW,250,2.0,13.0,57,0.00,,FEW075,0.00,VWS V14.01,2013-02-01 07:30:00,
2013-02-01 02:40:00,24.0,11.0,29.67,West,270,4.0,10.0,57,0.00,,FEW075,0.00,VWS V14.01,2013-02-01 07:40:00,
2013-02-01 02:50:00,24.0,11.0,29.67,SSW,201,5.0,13.0,57,0.00,,FEW075,0.00,VWS V14.01,2013-02-01 07:50:00,
2013-02-01 03:00:00,23.9,10.9,29.68,SW,233,6.0,10.0,57,0.00,,FEW075,0.00,VWS V14.01,2013-02-01 08:00:00,
2013-02-01 03:10:00,23.8,10.8,29.68,WNW,288,5.0,9.0,57,0.00,,FEW055,0.00,VWS V14.01,2013-02-01 08:10:00,
2013-02-01 03:20:00,23.8,10.8,29.68,NW,305,3.0,11.0,57,0.00,,FEW055,0.00,VWS V14.01,2013-02-01 08:20:00,
2013-02-01 03:30:00,23.7,10.7,29.68,WNW,302,3.0,10.0,57,0.00,,FEW055,0.00,VWS V14.01,2013-02-01 08:30:00,
2013-02-01 03:40:00,23.7,11.1,29.68,NW,309,2.0,9.0,58,0.00,,FEW055,0.00,VWS V14.01,2013-02-01 08:40:00,
2013-02-01 03:50:00,23.7,11.1,29.69,NW,304,2.0,10.0,58,0.00,,FEW055,0.00,VWS V14.01,2013-02-01 08:50:00,
2013-02-01 04:00:00,23.4,10.8,29.69,WNW,283,6.0,9.0,58,0.00,,OVC006,0.00,VWS V14.01,2013-02-01 09:00:00,
2013-02-01 04:01:00,23.6,11.0,29.69,SW,222,2.0,9.0,58,0.00,,FEW055,0.00,VWS V14.01,2013-02-01 09:01:00,
2013-02-01 04:10:00,23.6,11.0,29.68,WSW,243,4.0,11.0,58,0.00,,FEW040,0.00,VWS V14.01,2013-02-01 09:10:00,
2013-02-01 04:20:00,23.6,10.6,29.69,West,262,3.0,8.0,57,0.00,,FEW040,0.00,VWS V14.01,2013-02-01 09:20:00,
2013-02-01 04:30:00,23.6,10.6,29.69,SSW,203,2.0,8.0,57,0.00,,FEW040,0.00,VWS V14.01,2013-02-01 09:30:00,
2013-02-01 04:40:00,23.5,10.9,29.68,WNW,293,3.0,9.0,58,0.00,,FEW040,0.00,VWS V14.01,2013-02-01 09:40:00,
2013-02-01 04:50:00,23.4,10.8,29.69,WSW,246,5.0,9.0,58,0.00,,FEW040,0.00,VWS V14.01,2013-02-01 09:50:00,
2013-02-01 05:00:00,23.4,10.8,29.69,WNW,283,6.0,9.0,58,0.00,,FEW040,0.00,VWS V14.01,2013-02-01 10:00:00,
2013-02-01 05:10:00,23.3,10.7,29.69,WSW,248,3.0,10.0,58,0.00,,FEW040,0.00,VWS V14.01,2013-02-01 10:10:00,
2013-02-01 05:20:00,23.2,11.0,29.69,WSW,243,2.0,9.0,59,0.00,,FEW040,0.00,VWS V14.01,2013-02-01 10:20:00,
2013-02-01 05:30:00,23.0,11.9,29.70,WSW,240,3.0,8.0,62,0.00,,FEW040,0.00,VWS V14.01,2013-02-01 10:30:00,
2013-02-01 05:40:00,22.8,12.5,29.71,West,265,1.0,6.0,64,0.00,,FEW040,0.00,VWS V14.01,2013-02-01 10:40:00,
2013-02-01 05:50:00,22.7,12.7,29.71,SSW,210,4.0,8.0,65,0.00,,FEW040,0.00,VWS V14.01,2013-02-01 10:50:00,
2013-02-01 06:00:00,22.6,13.0,29.72,South,174,1.0,10.0,66,0.00,,FEW040,0.00,VWS V14.01,2013-02-01 11:00:00,
2013-02-01 06:10:00,22.7,13.1,29.72,SW,234,2.0,9.0,66,0.00,,FEW040,0.00,VWS V14.01,2013-02-01 11:10:00,
2013-02-01 06:20:00,22.9,13.3,29.73,SW,235,8.0,10.0,66,0.00,,FEW040,0.00,VWS V14.01,2013-02-01 11:20:00,
2013-02-01 06:30:00,23.0,13.4,29.73,SW,219,4.0,11.0,66,0.00,,FEW040,0.00,VWS V14.01,2013-02-01 11:30:00,
2013-02-01 06:40:00,23.2,13.5,29.74,WSW,242,7.0,13.0,66,0.00,,FEW040,0.00,VWS V14.01,2013-02-01 11:40:00,
2013-02-01 06:50:00,23.2,13.5,29.74,SW,225,3.0,7.0,66,0.00,,FEW040,0.00,VWS V14.01,2013-02-01 11:50:00,
2013-02-01 07:00:00,23.6,13.6,29.78,WNW,294,5.0,11.0,65,0.00,,OVC006,0.00,VWS V14.01,2013-02-01 12:00:00,
2013-02-01 07:01:00,23.2,13.5,29.75,WSW,243,3.0,10.0,66,0.00,,FEW040,0.00,VWS V14.01,2013-02-01 12:01:00,
2013-02-01 07:10:00,23.3,13.3,29.75,WNW,290,4.0,10.0,65,0.00,,BKN200,0.00,VWS V14.01,2013-02-01 12:10:00,
2013-02-01 07:20:00,23.3,13.3,29.76,SW,224,6.0,8.0,65,0.00,,BKN200,0.00,VWS V14.01,2013-02-01 12:20:00,
2013-02-01 07:30:00,23.2,13.2,29.77,WNW,300,2.0,10.0,65,0.00,,BKN200,0.00,VWS V14.01,2013-02-01 12:30:00,
2013-02-01 07:40:00,23.3,13.6,29.77,WNW,302,2.0,10.0,66,0.00,,BKN200,0.00,VWS V14.01,2013-02-01 12:40:00,
2013-02-01 07:50:00,23.4,13.7,29.78,West,259,1.0,9.0,66,0.00,,BKN200,0.00,VWS V14.01,2013-02-01 12:50:00,
2013-02-01 08:00:00,23.6,13.6,29.78,WNW,294,5.0,11.0,65,0.00,,BKN200,0.00,VWS V14.01,2013-02-01 13:00:00,
2013-02-01 08:10:00,23.8,13.8,29.78,WNW,295,4.0,17.0,65,0.00,,BKN060,0.00,VWS V14.01,2013-02-01 13:10:00,
2013-02-01 08:20:00,24.0,14.0,29.79,SW,225,4.0,8.0,65,0.00,,BKN060,0.00,VWS V14.01,2013-02-01 13:20:00,
2013-02-01 08:30:00,24.8,14.4,29.78,NNW,329,10.0,11.0,64,0.00,,OVC006,0.00,VWS V14.01,2013-02-01 13:30:00,
2013-02-01 08:31:00,24.5,14.4,29.79,West,264,10.0,12.0,65,0.00,,BKN060,0.00,VWS V14.01,2013-02-01 13:31:00,
2013-02-01 08:40:00,24.3,13.9,29.79,SSW,197,5.0,11.0,64,0.00,,BKN060,0.00,VWS V14.01,2013-02-01 13:40:00,
2013-02-01 08:50:00,24.6,13.8,29.80,SW,215,1.0,12.0,63,0.00,,BKN060,0.00,VWS V14.01,2013-02-01 13:50:00,
2013-02-01 09:00:00,25.0,13.8,29.80,SW,221,4.0,12.0,62,0.00,,OVC006,0.00,VWS V14.01,2013-02-01 14:00:00,
2013-02-01 09:01:00,24.6,13.8,29.79,SSW,197,7.0,10.0,63,0.00,,BKN060,0.00,VWS V14.01,2013-02-01 14:01:00,
2013-02-01 09:10:00,24.8,13.6,29.79,NW,313,3.0,10.0,62,0.00,,,0.00,VWS V14.01,2013-02-01 14:10:00,
2013-02-01 09:20:00,25.7,14.1,29.78,NW,313,8.0,8.0,61,0.00,,,0.00,VWS V14.01,2013-02-01 14:20:00,
2013-02-01 09:30:00,26.7,13.5,29.80,West,270,2.0,6.0,57,0.00,,OVC006,0.00,VWS V14.01,2013-02-01 14:30:00,
2013-02-01 09:31:00,24.8,14.4,29.78,NNW,329,10.0,11.0,64,0.00,,,0.00,VWS V14.01,2013-02-01 14:31:00,
2013-02-01 09:40:00,24.6,15.2,29.79,NNW,345,1.0,12.0,67,0.00,,,0.00,VWS V14.01,2013-02-01 14:40:00,
2013-02-01 09:50:00,24.8,15.1,29.79,SW,231,4.0,11.0,66,0.00,,,0.00,VWS V14.01,2013-02-01 14:50:00,
2013-02-01 10:00:00,26.1,11.3,29.81,SW,217,7.0,9.0,53,0.00,,OVC006,0.00,VWS V14.01,2013-02-01 15:00:00,
2013-02-01 10:01:00,25.0,13.8,29.80,SW,221,4.0,12.0,62,0.00,,,0.00,VWS V14.01,2013-02-01 15:01:00,
2013-02-01 10:10:00,25.1,13.6,29.80,SW,214,2.0,13.0,61,0.00,,SCT042,0.00,VWS V14.01,2013-02-01 15:10:00,
2013-02-01 10:20:00,25.5,13.2,29.80,NW,307,2.0,6.0,59,0.00,,SCT042,0.00,VWS V14.01,2013-02-01 15:20:00,
2013-02-01 10:30:00,26.7,13.5,29.80,West,270,2.0,6.0,57,0.00,,SCT042,0.00,VWS V14.01,2013-02-01 15:30:00,
2013-02-01 10:40:00,26.9,12.1,29.81,WNW,295,8.0,10.0,53,0.00,,SCT042,0.00,VWS V14.01,2013-02-01 15:40:00,
2013-02-01 10:50:00,26.7,12.3,29.81,WNW,285,3.0,11.0,54,0.00,,SCT042,0.00,VWS V14.01,2013-02-01 15:50:00,
2013-02-01 11:00:00,26.1,11.3,29.81,SW,217,7.0,9.0,53,0.00,,SCT042,0.00,VWS V14.01,2013-02-01 16:00:00,
2013-02-01 11:10:00,26.2,12.2,29.80,WNW,303,3.0,9.0,55,0.00,,BKN200,0.00,VWS V14.01,2013-02-01 16:10:00,
2013-02-01 11:20:00,26.0,12.1,29.80,West,267,2.0,11.0,55,0.00,,BKN200,0.00,VWS V14.01,2013-02-01 16:20:00,
2013-02-01 11:30:00,25.9,10.3,29.81,NW,320,4.0,10.0,51,0.00,,BKN200,0.00,VWS V14.01,2013-02-01 16:30:00,
2013-02-01 11:40:00,25.6,7.7,29.80,NW,307,2.0,12.0,46,0.00,,BKN200,0.00,VWS V14.01,2013-02-01 16:40:00,
2013-02-01 11:50:00,26.1,7.7,29.80,NW,304,5.0,12.0,45,0.00,,BKN200,0.00,VWS V14.01,2013-02-01 16:50:00,
2013-02-01 12:00:00,26.1,8.2,29.80,West,274,5.0,13.0,46,0.00,,OVC006,0.00,VWS V14.01,2013-02-01 17:00:00,
2013-02-01 12:01:00,26.8,8.3,29.80,WNW,300,5.0,9.0,45,0.00,,BKN200,0.00,VWS V14.01,2013-02-01 17:01:00,
2013-02-01 12:10:00,26.3,8.8,29.80,NNW,328,4.0,12.0,47,0.00,,BKN250,0.00,VWS V14.01,2013-02-01 17:10:00,
2013-02-01 12:20:00,27.2,7.2,29.80,NW,324,9.0,17.0,42,0.00,,OVC006,0.00,VWS V14.01,2013-02-01 17:20:00,
2013-02-01 12:21:00,25.4,10.7,29.80,SW,236,7.0,13.0,53,0.00,,BKN250,0.00,VWS V14.01,2013-02-01 17:21:00,
2013-02-01 12:30:00,24.9,9.4,29.80,NW,315,4.0,13.0,51,0.00,,BKN250,0.00,VWS V14.01,2013-02-01 17:30:00,
2013-02-01 12:40:00,25.4,9.4,29.80,NW,309,3.0,12.0,50,0.00,,BKN250,0.00,VWS V14.01,2013-02-01 17:40:00,
2013-02-01 12:50:00,25.5,9.0,29.80,NNW,334,4.0,14.0,49,0.00,,BKN250,0.00,VWS V14.01,2013-02-01 17:50:00,
2013-02-01 13:00:00,26.4,7.9,29.82,WNW,293,3.0,15.0,45,0.00,,OVC006,0.00,VWS V14.01,2013-02-01 18:00:00,
2013-02-01 13:01:00,26.1,8.2,29.80,West,274,5.0,13.0,46,0.00,,BKN250,0.00,VWS V14.01,2013-02-01 18:01:00,
2013-02-01 13:10:00,26.8,8.3,29.79,WNW,283,4.0,17.0,45,0.00,,BKN250,0.00,VWS V14.01,2013-02-01 18:10:00,
2013-02-01 13:20:00,27.2,7.2,29.80,NW,324,9.0,17.0,42,0.00,,BKN250,0.00,VWS V14.01,2013-02-01 18:20:00,
2013-02-01 13:30:00,27.7,7.6,29.80,WNW,289,6.0,15.0,42,0.00,,BKN250,0.00,VWS V14.01,2013-02-01 18:30:00,
2013-02-01 13:40:00,27.4,7.3,29.81,NW,315,9.0,14.0,42,0.00,,BKN250,0.00,VWS V14.01,2013-02-01 18:40:00,
2013-02-01 13:50:00,27.4,7.9,29.81,NW,317,5.0,14.0,43,0.00,,BKN250,0.00,VWS V14.01,2013-02-01 18:50:00,
2013-02-01 14:00:00,26.4,7.9,29.82,WNW,293,3.0,15.0,45,0.00,,BKN250,0.00,VWS V14.01,2013-02-01 19:00:00,
2013-02-01 14:10:00,26.1,7.2,29.82,NW,316,3.0,10.0,44,0.00,,BKN250,0.00,VWS V14.01,2013-02-01 19:10:00,
2013-02-01 14:20:00,26.4,7.9,29.82,North,5,2.0,9.0,45,0.00,,BKN250,0.00,VWS V14.01,2013-02-01 19:20:00,
2013-02-01 14:30:00,25.4,12.7,29.83,NW,312,8.0,14.0,58,0.00,,BKN250,0.00,VWS V14.01,2013-02-01 19:30:00,
2013-02-01 14:40:00,25.0,12.3,29.84,North,7,3.0,13.0,58,0.00,,BKN250,0.00,VWS V14.01,2013-02-01 19:40:00,
2013-02-01 14:50:00,24.7,12.4,29.85,North,360,5.0,16.0,59,0.00,,BKN250,0.00,VWS V14.01,2013-02-01 19:50:00,
2013-02-01 15:00:00,24.8,10.5,29.90,WNW,302,4.0,11.0,54,0.00,,OVC006,0.00,VWS V14.01,2013-02-01 20:00:00,
2013-02-01 15:01:00,24.9,12.6,29.86,WSW,246,7.0,16.0,59,0.00,,BKN250,0.00,VWS V14.01,2013-02-01 20:01:00,
2013-02-01 15:10:00,24.2,12.7,29.87,WNW,294,9.0,13.0,61,0.00,,BKN060,0.00,VWS V14.01,2013-02-01 20:10:00,
2013-02-01 15:20:00,24.8,13.3,29.87,NW,307,4.0,12.0,61,0.00,,BKN060,0.00,VWS V14.01,2013-02-01 20:20:00,
2013-02-01 15:30:00,23.6,10.6,29.92,NNW,331,7.0,14.0,57,0.00,,OVC006,0.00,VWS V14.01,2013-02-01 20:30:00,
2013-02-01 15:31:00,25.1,12.0,29.87,WSW,256,5.0,13.0,57,0.00,,BKN060,0.00,VWS V14.01,2013-02-01 20:31:00,
2013-02-01 15:40:00,25.0,11.1,29.88,WNW,300,6.0,9.0,55,0.00,,BKN060,0.00,VWS V14.01,2013-02-01 20:40:00,
2013-02-01 15:50:00,24.9,10.2,29.88,NW,305,4.0,16.0,53,0.00,,BKN060,0.00,VWS V14.01,2013-02-01 20:50:00,
2013-02-01 16:00:00,23.0,7.1,29.94,NNW,335,7.0,12.0,50,0.00,,OVC006,0.00,VWS V14.01,2013-02-01 21:00:00,
2013-02-01 16:01:00,24.8,10.5,29.90,WNW,302,4.0,11.0,54,0.00,,BKN060,0.00,VWS V14.01,2013-02-01 21:01:00,
2013-02-01 16:10:00,24.2,10.8,29.90,NW,319,5.0,10.0,56,0.00,,BKN080,0.00,VWS V14.01,2013-02-01 21:10:00,
2013-02-01 16:20:00,24.2,11.2,29.91,NW,325,4.0,10.0,57,0.00,,BKN080,0.00,VWS V14.01,2013-02-01 21:20:00,
2013-02-01 16:30:00,23.6,10.6,29.92,NNW,331,7.0,14.0,57,0.00,,BKN080,0.00,VWS V14.01,2013-02-01 21:30:00,
2013-02-01 16:40:00,23.3,8.3,29.92,West,271,5.0,15.0,52,0.00,,BKN080,0.00,VWS V14.01,2013-02-01 21:40:00,
2013-02-01 16:50:00,23.2,7.3,29.93,NNW,336,5.0,11.0,50,0.00,,BKN080,0.00,VWS V14.01,2013-02-01 21:50:00,
2013-02-01 17:00:00,23.0,7.1,29.94,NNW,335,7.0,12.0,50,0.00,,BKN080,0.00,VWS V14.01,2013-02-01 22:00:00,
2013-02-01 17:10:00,22.9,7.5,29.95,North,349,6.0,13.0,51,0.00,,SCT250,0.00,VWS V14.01,2013-02-01 22:10:00,
2013-02-01 17:20:00,22.5,8.0,29.96,NW,316,2.0,11.0,53,0.00,,SCT250,0.00,VWS V14.01,2013-02-01 22:20:00,
2013-02-01 17:30:00,21.9,8.6,29.97,NW,309,5.0,14.0,56,0.00,,SCT250,0.00,VWS V14.01,2013-02-01 22:30:00,
2013-02-01 17:40:00,21.6,8.3,29.97,WNW,293,1.0,15.0,56,0.00,,SCT250,0.00,VWS V14.01,2013-02-01 22:40:00,
2013-02-01 17:50:00,21.4,7.3,29.98,WNW,302,2.0,10.0,54,0.00,,SCT250,0.00,VWS V14.01,2013-02-01 22:50:00,
2013-02-01 18:00:00,20.2,5.8,30.03,NW,323,4.0,12.0,53,0.00,,OVC006,0.00,VWS V14.01,2013-02-01 23:00:00,
2013-02-01 18:01:00,21.2,6.3,29.99,NNE,20,1.0,8.0,52,0.00,,SCT250,0.00,VWS V14.01,2013-02-01 23:01:00,
2013-02-01 18:10:00,21.0,5.3,30.00,WNW,298,5.0,11.0,50,0.00,,SCT250,0.00,VWS V14.01,2013-02-01 23:10:00,
2013-02-01 18:20:00,20.7,5.4,30.01,NW,323,4.0,16.0,51,0.00,,SCT250,0.00,VWS V14.01,2013-02-01 23:20:00,
2013-02-01 18:30:00,20.0,6.0,30.04,NNW,343,3.0,10.0,54,0.00,,OVC006,0.00,VWS V14.01,2013-02-01 23:30:00,
2013-02-01 18:31:00,20.5,5.7,30.01,NW,322,8.0,9.0,52,0.00,,SCT250,0.00,VWS V14.01,2013-02-01 23:31:00,
2013-02-01 18:40:00,20.4,6.0,30.02,WNW,290,7.0,10.0,53,0.00,,SCT250,0.00,VWS V14.01,2013-02-01 23:40:00,
2013-02-01 18:50:00,20.2,5.8,30.02,West,267,3.0,13.0,53,0.00,,SCT250,0.00,VWS V14.01,2013-02-01 23:50:00,
2013-02-01 19:00:00,19.6,6.5,30.06,NW,316,6.0,9.0,56,0.00,,OVC006,0.00,VWS V14.01,2013-02-02 00:00:00,
2013-02-01 19:01:00,20.2,5.8,30.03,NW,323,4.0,12.0,53,0.00,,SCT250,0.00,VWS V14.01,2013-02-02 00:01:00,
2013-02-01 19:10:00,20.1,6.1,30.03,WNW,298,2.0,12.0,54,0.00,,FEW250,0.00,VWS V14.01,2013-02-02 00:10:00,
2013-02-01 19:20:00,20.1,5.7,30.04,WNW,302,5.0,12.0,53,0.00,,FEW250,0.00,VWS V14.01,2013-02-02 00:20:00,
2013-02-01 19:30:00,19.3,6.9,30.06,NW,309,4.0,10.0,58,0.00,,OVC006,0.00,VWS V14.01,2013-02-02 00:30:00,
2013-02-01 19:31:00,20.0,6.0,30.04,NNW,343,3.0,10.0,54,0.00,,FEW250,0.00,VWS V14.01,2013-02-02 00:31:00,
2013-02-01 19:40:00,19.8,6.3,30.05,NW,312,3.0,7.0,55,0.00,,FEW250,0.00,VWS V14.01,2013-02-02 00:40:00,
2013-02-01 19:50:00,19.7,6.2,30.05,NW,307,5.0,11.0,55,0.00,,FEW250,0.00,VWS V14.01,2013-02-02 00:50:00,
2013-02-01 20:00:00,19.6,6.5,30.06,NW,316,6.0,9.0,56,0.00,,FEW250,0.00,VWS V14.01,2013-02-02 01:00:00,
2013-02-01 20:10:00,19.4,6.7,30.06,WNW,294,4.0,10.0,57,0.00,,CLR,0.00,VWS V14.01,2013-02-02 01:10:00,
2013-02-01 20:20:00,19.4,6.7,30.06,NW,307,2.0,11.0,57,0.00,,CLR,0.00,VWS V14.01,2013-02-02 01:20:00,
2013-02-01 20:30:00,18.5,8.0,30.08,West,266,2.0,7.0,63,0.00,,OVC006,0.00,VWS V14.01,2013-02-02 01:30:00,
2013-02-01 20:31:00,19.3,6.9,30.06,NW,309,4.0,10.0,58,0.00,,CLR,0.00,VWS V14.01,2013-02-02 01:31:00,
2013-02-01 20:40:00,19.1,7.1,30.07,WNW,297,2.0,7.0,59,0.00,,CLR,0.00,VWS V14.01,2013-02-02 01:40:00,
2013-02-01 20:50:00,18.9,7.3,30.07,NW,325,4.0,11.0,60,0.00,,CLR,0.00,VWS V14.01,2013-02-02 01:50:00,
2013-02-01 21:00:00,18.9,7.7,30.07,WNW,302,1.0,9.0,61,0.00,,CLR,0.00,VWS V14.01,2013-02-02 02:00:00,
2013-02-01 21:10:00,18.7,7.9,30.07,NW,307,1.0,9.0,62,0.00,,CLR,0.00,VWS V14.01,2013-02-02 02:10:00,
2013-02-01 21:20:00,18.5,7.7,30.08,WNW,289,2.0,4.0,62,0.00,,CLR,0.00,VWS V14.01,2013-02-02 02:20:00,
2013-02-01 21:30:00,18.5,8.0,30.08,West,266,2.0,7.0,63,0.00,,CLR,0.00,VWS V14.01,2013-02-02 02:30:00,
2013-02-01 21:40:00,18.3,8.2,30.08,West,265,0.0,4.0,64,0.00,,CLR,0.00,VWS V14.01,2013-02-02 02:40:00,
2013-02-01 21:50:00,18.3,8.2,30.08,West,267,1.0,6.0,64,0.00,,CLR,0.00,VWS V14.01,2013-02-02 02:50:00,
2013-02-01 22:00:00,18.1,8.3,30.09,WNW,288,2.0,6.0,65,0.00,,CLR,0.00,VWS V14.01,2013-02-02 03:00:00,
2013-02-01 22:10:00,18.1,8.3,30.09,WNW,297,4.0,6.0,65,0.00,,FEW050,0.00,VWS V14.01,2013-02-02 03:10:00,
2013-02-01 22:20:00,18.1,8.3,30.09,NW,305,1.0,4.0,65,0.00,,FEW050,0.00,VWS V14.01,2013-02-02 03:20:00,
2013-02-01 22:30:00,18.2,8.1,30.10,SW,235,2.0,7.0,64,0.00,,FEW050,0.00,VWS V14.01,2013-02-02 03:30:00,
2013-02-01 22:40:00,18.2,8.1,30.10,WNW,289,1.0,7.0,64,0.00,,FEW050,0.00,VWS V14.01,2013-02-02 03:40:00,
2013-02-01 22:50:00,18.3,7.8,30.10,West,259,1.0,5.0,63,0.00,,FEW050,0.00,VWS V14.01,2013-02-02 03:50:00,
2013-02-01 23:00:00,18.3,7.5,30.11,WNW,290,4.0,8.0,62,0.00,,FEW050,0.00,VWS V14.01,2013-02-02 04:00:00,
2013-02-01 23:10:00,18.3,7.5,30.11,West,276,2.0,5.0,62,0.00,,FEW047,0.00,VWS V14.01,2013-02-02 04:10:00,
2013-02-01 23:20:00,18.4,7.2,30.12,West,263,2.0,7.0,61,0.00,,FEW047,0.00,VWS V14.01,2013-02-02 04:20:00,
2013-02-01 23:30:00,18.4,7.2,30.12,WNW,283,1.0,3.0,61,0.00,,FEW047,0.00,VWS V14.01,2013-02-02 04:30:00,
2013-02-01 23:40:00,18.5,6.9,30.12,NNW,333,2.0,6.0,60,0.00,,FEW047,0.00,VWS V14.01,2013-02-02 04:40:00,
2013-02-01 23:50:00,18.7,7.1,30.13,WNW,283,1.0,5.0,60,0.00,,FEW047,0.00,VWS V14.01,2013-02-02 04:50:00,